sensor_id;sensor_type;location;lat;lon;timestamp;P1;durP1;ratioP1;P2;durP2;ratioP2
2930;SDS011;1475;51.454;7.150;2022-07-22T00:00:28;10.02;;;8.07;;
2930;SDS011;1475;51.454;7.150;2022-07-22T00:03:03;10.05;;;7.82;;
2930;SDS011;1475;51.454;7.150;2022-07-22T00:05:30;8.90;;;7.50;;
2930;SDS011;1475;51.454;7.150;2022-07-22T00:07:57;10.88;;;8.05;;
2930;SDS011;1475;51.454;7.150;2022-07-22T00:10:24;11.60;;;7.80;;
2930;SDS011;1475;51.454;7.150;2022-07-22T00:12:52;10.48;;;8.80;;
2930;SDS011;1475;51.454;7.150;2022-07-22T00:15:18;10.50;;;8.70;;
2930;SDS011;1475;51.454;7.150;2022-07-22T00:17:45;11.43;;;8.93;;
2930;SDS011;1475;51.454;7.150;2022-07-22T00:20:24;12.35;;;9.60;;
2930;SDS011;1475;51.454;7.150;2022-07-22T00:22:51;11.40;;;10.15;;
2930;SDS011;1475;51.454;7.150;2022-07-22T00:25:19;11.23;;;10.13;;
2930;SDS011;1475;51.454;7.150;2022-07-22T00:27:46;16.63;;;9.93;;
2930;SDS011;1475;51.454;7.150;2022-07-22T00:30:14;13.23;;;9.30;;
2930;SDS011;1475;51.454;7.150;2022-07-22T00:32:42;12.75;;;9.90;;
2930;SDS011;1475;51.454;7.150;2022-07-22T00:35:09;15.30;;;10.85;;
2930;SDS011;1475;51.454;7.150;2022-07-22T00:37:38;12.63;;;10.40;;
2930;SDS011;1475;51.454;7.150;2022-07-22T00:40:06;12.55;;;10.80;;
2930;SDS011;1475;51.454;7.150;2022-07-22T00:42:34;13.07;;;10.63;;
2930;SDS011;1475;51.454;7.150;2022-07-22T00:45:01;12.07;;;10.87;;
2930;SDS011;1475;51.454;7.150;2022-07-22T00:47:29;12.83;;;11.17;;
2930;SDS011;1475;51.454;7.150;2022-07-22T00:49:56;15.10;;;11.30;;
2930;SDS011;1475;51.454;7.150;2022-07-22T00:52:23;16.42;;;14.65;;
2930;SDS011;1475;51.454;7.150;2022-07-22T00:54:52;18.13;;;15.38;;
2930;SDS011;1475;51.454;7.150;2022-07-22T00:57:22;17.38;;;15.52;;
2930;SDS011;1475;51.454;7.150;2022-07-22T00:59:50;19.98;;;14.80;;
2930;SDS011;1475;51.454;7.150;2022-07-22T01:02:19;20.52;;;17.15;;
2930;SDS011;1475;51.454;7.150;2022-07-22T01:04:47;19.13;;;16.30;;
2930;SDS011;1475;51.454;7.150;2022-07-22T01:07:15;17.58;;;15.63;;
2930;SDS011;1475;51.454;7.150;2022-07-22T01:09:43;18.42;;;15.93;;
2930;SDS011;1475;51.454;7.150;2022-07-22T01:12:13;20.48;;;15.25;;
2930;SDS011;1475;51.454;7.150;2022-07-22T01:14:41;16.17;;;13.70;;
2930;SDS011;1475;51.454;7.150;2022-07-22T01:17:08;14.48;;;12.77;;
2930;SDS011;1475;51.454;7.150;2022-07-22T01:19:35;14.77;;;12.10;;
2930;SDS011;1475;51.454;7.150;2022-07-22T01:22:04;15.13;;;13.30;;
2930;SDS011;1475;51.454;7.150;2022-07-22T01:24:32;17.00;;;13.27;;
2930;SDS011;1475;51.454;7.150;2022-07-22T01:26:59;17.88;;;13.50;;
2930;SDS011;1475;51.454;7.150;2022-07-22T01:29:26;16.95;;;12.70;;
2930;SDS011;1475;51.454;7.150;2022-07-22T01:31:53;14.23;;;12.35;;
2930;SDS011;1475;51.454;7.150;2022-07-22T01:34:21;16.80;;;12.43;;
2930;SDS011;1475;51.454;7.150;2022-07-22T01:36:50;16.85;;;11.88;;
2930;SDS011;1475;51.454;7.150;2022-07-22T01:39:18;14.02;;;10.95;;
2930;SDS011;1475;51.454;7.150;2022-07-22T01:41:45;13.68;;;10.48;;
2930;SDS011;1475;51.454;7.150;2022-07-22T01:44:14;14.27;;;10.30;;
2930;SDS011;1475;51.454;7.150;2022-07-22T01:46:41;12.65;;;9.40;;
2930;SDS011;1475;51.454;7.150;2022-07-22T01:49:08;13.10;;;9.77;;
2930;SDS011;1475;51.454;7.150;2022-07-22T01:51:35;13.98;;;9.55;;
2930;SDS011;1475;51.454;7.150;2022-07-22T01:54:02;12.02;;;8.65;;
2930;SDS011;1475;51.454;7.150;2022-07-22T01:56:31;11.13;;;8.30;;
2930;SDS011;1475;51.454;7.150;2022-07-22T01:58:59;14.73;;;9.30;;
2930;SDS011;1475;51.454;7.150;2022-07-22T02:01:26;13.18;;;9.50;;
2930;SDS011;1475;51.454;7.150;2022-07-22T02:03:54;14.55;;;10.13;;
2930;SDS011;1475;51.454;7.150;2022-07-22T02:06:23;12.10;;;9.20;;
2930;SDS011;1475;51.454;7.150;2022-07-22T02:08:50;13.50;;;10.48;;
2930;SDS011;1475;51.454;7.150;2022-07-22T02:11:16;18.77;;;11.70;;
2930;SDS011;1475;51.454;7.150;2022-07-22T02:13:45;16.33;;;10.60;;
2930;SDS011;1475;51.454;7.150;2022-07-22T02:16:12;15.15;;;10.50;;
2930;SDS011;1475;51.454;7.150;2022-07-22T02:18:39;15.00;;;11.60;;
2930;SDS011;1475;51.454;7.150;2022-07-22T02:21:06;12.57;;;10.18;;
2930;SDS011;1475;51.454;7.150;2022-07-22T02:23:34;14.80;;;8.90;;
2930;SDS011;1475;51.454;7.150;2022-07-22T02:26:01;11.38;;;8.77;;
2930;SDS011;1475;51.454;7.150;2022-07-22T02:28:28;13.82;;;8.40;;
2930;SDS011;1475;51.454;7.150;2022-07-22T02:30:57;12.73;;;9.20;;
2930;SDS011;1475;51.454;7.150;2022-07-22T02:33:24;13.02;;;8.43;;
2930;SDS011;1475;51.454;7.150;2022-07-22T02:35:51;12.48;;;8.40;;
2930;SDS011;1475;51.454;7.150;2022-07-22T02:38:18;13.88;;;8.23;;
2930;SDS011;1475;51.454;7.150;2022-07-22T02:40:45;12.88;;;9.48;;
2930;SDS011;1475;51.454;7.150;2022-07-22T02:43:12;14.38;;;9.48;;
2930;SDS011;1475;51.454;7.150;2022-07-22T02:45:39;13.38;;;9.65;;
2930;SDS011;1475;51.454;7.150;2022-07-22T02:48:07;16.07;;;8.70;;
2930;SDS011;1475;51.454;7.150;2022-07-22T02:50:35;13.05;;;8.98;;
2930;SDS011;1475;51.454;7.150;2022-07-22T02:53:04;13.77;;;9.13;;
2930;SDS011;1475;51.454;7.150;2022-07-22T02:55:31;13.03;;;8.57;;
2930;SDS011;1475;51.454;7.150;2022-07-22T02:58:03;15.90;;;10.15;;
2930;SDS011;1475;51.454;7.150;2022-07-22T03:00:30;12.85;;;8.30;;
2930;SDS011;1475;51.454;7.150;2022-07-22T03:02:58;13.80;;;9.25;;
2930;SDS011;1475;51.454;7.150;2022-07-22T03:05:26;12.25;;;9.15;;
2930;SDS011;1475;51.454;7.150;2022-07-22T03:07:53;18.15;;;9.55;;
2930;SDS011;1475;51.454;7.150;2022-07-22T03:10:20;18.60;;;11.40;;
2930;SDS011;1475;51.454;7.150;2022-07-22T03:12:47;16.33;;;11.40;;
2930;SDS011;1475;51.454;7.150;2022-07-22T03:15:14;13.27;;;10.30;;
2930;SDS011;1475;51.454;7.150;2022-07-22T03:17:42;13.90;;;10.23;;
2930;SDS011;1475;51.454;7.150;2022-07-22T03:20:09;15.33;;;10.00;;
2930;SDS011;1475;51.454;7.150;2022-07-22T03:22:39;16.08;;;11.00;;
2930;SDS011;1475;51.454;7.150;2022-07-22T03:25:06;10.88;;;9.40;;
2930;SDS011;1475;51.454;7.150;2022-07-22T03:27:33;14.20;;;10.70;;
2930;SDS011;1475;51.454;7.150;2022-07-22T03:30:02;14.65;;;9.50;;
2930;SDS011;1475;51.454;7.150;2022-07-22T03:32:29;13.52;;;9.48;;
2930;SDS011;1475;51.454;7.150;2022-07-22T03:34:56;12.52;;;10.00;;
2930;SDS011;1475;51.454;7.150;2022-07-22T03:37:23;14.20;;;9.48;;
2930;SDS011;1475;51.454;7.150;2022-07-22T03:39:52;13.23;;;8.70;;
2930;SDS011;1475;51.454;7.150;2022-07-22T03:42:20;11.57;;;8.35;;
2930;SDS011;1475;51.454;7.150;2022-07-22T03:44:47;12.35;;;8.50;;
2930;SDS011;1475;51.454;7.150;2022-07-22T03:47:17;10.30;;;7.63;;
2930;SDS011;1475;51.454;7.150;2022-07-22T03:49:46;10.80;;;7.65;;
2930;SDS011;1475;51.454;7.150;2022-07-22T03:52:13;13.10;;;8.40;;
2930;SDS011;1475;51.454;7.150;2022-07-22T03:54:40;9.75;;;8.20;;
2930;SDS011;1475;51.454;7.150;2022-07-22T03:57:08;14.60;;;8.98;;
2930;SDS011;1475;51.454;7.150;2022-07-22T03:59:36;11.90;;;9.20;;
2930;SDS011;1475;51.454;7.150;2022-07-22T04:02:03;13.45;;;9.10;;
2930;SDS011;1475;51.454;7.150;2022-07-22T04:04:31;13.90;;;8.63;;
2930;SDS011;1475;51.454;7.150;2022-07-22T04:06:58;10.75;;;8.55;;
2930;SDS011;1475;51.454;7.150;2022-07-22T04:09:25;13.80;;;8.27;;
2930;SDS011;1475;51.454;7.150;2022-07-22T04:11:52;11.35;;;7.97;;
2930;SDS011;1475;51.454;7.150;2022-07-22T04:14:21;12.55;;;7.80;;
2930;SDS011;1475;51.454;7.150;2022-07-22T04:16:48;12.48;;;7.90;;
2930;SDS011;1475;51.454;7.150;2022-07-22T04:19:15;11.90;;;7.77;;
2930;SDS011;1475;51.454;7.150;2022-07-22T04:21:42;11.43;;;8.25;;
2930;SDS011;1475;51.454;7.150;2022-07-22T04:24:09;12.73;;;8.30;;
2930;SDS011;1475;51.454;7.150;2022-07-22T04:26:50;11.70;;;7.97;;
2930;SDS011;1475;51.454;7.150;2022-07-22T04:29:17;14.10;;;8.38;;
2930;SDS011;1475;51.454;7.150;2022-07-22T04:31:50;12.90;;;8.80;;
2930;SDS011;1475;51.454;7.150;2022-07-22T04:34:17;10.35;;;8.27;;
2930;SDS011;1475;51.454;7.150;2022-07-22T04:36:44;10.80;;;7.07;;
2930;SDS011;1475;51.454;7.150;2022-07-22T04:39:12;11.23;;;7.30;;
2930;SDS011;1475;51.454;7.150;2022-07-22T04:41:39;13.48;;;8.15;;
2930;SDS011;1475;51.454;7.150;2022-07-22T04:44:06;13.02;;;7.68;;
2930;SDS011;1475;51.454;7.150;2022-07-22T04:46:34;9.77;;;7.03;;
2930;SDS011;1475;51.454;7.150;2022-07-22T04:49:03;10.75;;;6.70;;
2930;SDS011;1475;51.454;7.150;2022-07-22T04:51:31;11.75;;;7.47;;
2930;SDS011;1475;51.454;7.150;2022-07-22T04:53:58;14.50;;;7.10;;
2930;SDS011;1475;51.454;7.150;2022-07-22T04:56:25;12.52;;;7.55;;
2930;SDS011;1475;51.454;7.150;2022-07-22T04:58:52;12.40;;;7.80;;
2930;SDS011;1475;51.454;7.150;2022-07-22T05:01:20;10.90;;;7.28;;
2930;SDS011;1475;51.454;7.150;2022-07-22T05:03:47;13.57;;;7.90;;
2930;SDS011;1475;51.454;7.150;2022-07-22T05:06:15;13.23;;;8.25;;
2930;SDS011;1475;51.454;7.150;2022-07-22T05:08:42;10.95;;;7.40;;
2930;SDS011;1475;51.454;7.150;2022-07-22T05:11:09;10.55;;;7.30;;
2930;SDS011;1475;51.454;7.150;2022-07-22T05:13:35;11.73;;;7.25;;
2930;SDS011;1475;51.454;7.150;2022-07-22T05:16:02;10.48;;;7.60;;
2930;SDS011;1475;51.454;7.150;2022-07-22T05:18:29;10.85;;;6.93;;
2930;SDS011;1475;51.454;7.150;2022-07-22T05:20:56;10.43;;;6.20;;
2930;SDS011;1475;51.454;7.150;2022-07-22T05:23:24;9.05;;;6.13;;
2930;SDS011;1475;51.454;7.150;2022-07-22T05:25:51;9.88;;;6.45;;
2930;SDS011;1475;51.454;7.150;2022-07-22T05:28:18;9.57;;;6.00;;
2930;SDS011;1475;51.454;7.150;2022-07-22T05:30:45;9.82;;;5.65;;
2930;SDS011;1475;51.454;7.150;2022-07-22T05:33:12;8.60;;;5.40;;
2930;SDS011;1475;51.454;7.150;2022-07-22T05:35:39;9.15;;;5.72;;
2930;SDS011;1475;51.454;7.150;2022-07-22T05:38:05;8.40;;;5.28;;
2930;SDS011;1475;51.454;7.150;2022-07-22T05:40:33;7.40;;;5.10;;
2930;SDS011;1475;51.454;7.150;2022-07-22T05:43:00;9.45;;;5.30;;
2930;SDS011;1475;51.454;7.150;2022-07-22T05:45:27;10.38;;;4.40;;
2930;SDS011;1475;51.454;7.150;2022-07-22T05:47:54;8.95;;;4.30;;
2930;SDS011;1475;51.454;7.150;2022-07-22T05:50:20;4.78;;;3.50;;
2930;SDS011;1475;51.454;7.150;2022-07-22T05:52:47;5.53;;;3.60;;
2930;SDS011;1475;51.454;7.150;2022-07-22T05:55:14;7.85;;;3.80;;
2930;SDS011;1475;51.454;7.150;2022-07-22T05:57:43;9.10;;;4.40;;
2930;SDS011;1475;51.454;7.150;2022-07-22T06:00:10;7.30;;;3.47;;
2930;SDS011;1475;51.454;7.150;2022-07-22T06:02:37;11.07;;;4.50;;
2930;SDS011;1475;51.454;7.150;2022-07-22T06:05:05;5.32;;;3.70;;
2930;SDS011;1475;51.454;7.150;2022-07-22T06:07:32;10.05;;;3.95;;
2930;SDS011;1475;51.454;7.150;2022-07-22T06:09:59;10.23;;;4.30;;
2930;SDS011;1475;51.454;7.150;2022-07-22T06:12:26;9.25;;;3.97;;
2930;SDS011;1475;51.454;7.150;2022-07-22T06:14:54;9.60;;;4.73;;
2930;SDS011;1475;51.454;7.150;2022-07-22T06:17:21;9.43;;;4.47;;
2930;SDS011;1475;51.454;7.150;2022-07-22T06:19:48;9.30;;;4.47;;
2930;SDS011;1475;51.454;7.150;2022-07-22T06:22:15;11.50;;;4.70;;
2930;SDS011;1475;51.454;7.150;2022-07-22T06:24:42;9.27;;;4.40;;
2930;SDS011;1475;51.454;7.150;2022-07-22T06:27:09;9.48;;;4.30;;
2930;SDS011;1475;51.454;7.150;2022-07-22T06:29:36;6.32;;;3.72;;
2930;SDS011;1475;51.454;7.150;2022-07-22T06:32:05;6.53;;;3.88;;
2930;SDS011;1475;51.454;7.150;2022-07-22T06:34:32;10.37;;;4.30;;
2930;SDS011;1475;51.454;7.150;2022-07-22T06:36:59;9.73;;;4.25;;
2930;SDS011;1475;51.454;7.150;2022-07-22T06:39:26;6.18;;;4.53;;
2930;SDS011;1475;51.454;7.150;2022-07-22T06:41:53;7.32;;;3.60;;
2930;SDS011;1475;51.454;7.150;2022-07-22T06:44:20;7.43;;;3.50;;
2930;SDS011;1475;51.454;7.150;2022-07-22T06:46:47;5.25;;;3.40;;
2930;SDS011;1475;51.454;7.150;2022-07-22T06:49:15;5.30;;;3.45;;
2930;SDS011;1475;51.454;7.150;2022-07-22T06:51:42;6.18;;;3.55;;
2930;SDS011;1475;51.454;7.150;2022-07-22T06:54:08;7.18;;;3.63;;
2930;SDS011;1475;51.454;7.150;2022-07-22T06:56:35;7.03;;;3.50;;
2930;SDS011;1475;51.454;7.150;2022-07-22T06:59:02;7.10;;;3.50;;
2930;SDS011;1475;51.454;7.150;2022-07-22T07:01:29;5.95;;;3.10;;
2930;SDS011;1475;51.454;7.150;2022-07-22T07:03:55;4.57;;;2.92;;
2930;SDS011;1475;51.454;7.150;2022-07-22T07:06:24;5.82;;;3.42;;
2930;SDS011;1475;51.454;7.150;2022-07-22T07:08:50;4.60;;;2.95;;
2930;SDS011;1475;51.454;7.150;2022-07-22T07:11:17;5.63;;;3.50;;
2930;SDS011;1475;51.454;7.150;2022-07-22T07:13:44;6.13;;;3.40;;
2930;SDS011;1475;51.454;7.150;2022-07-22T07:16:11;6.07;;;4.78;;
2930;SDS011;1475;51.454;7.150;2022-07-22T07:18:37;5.65;;;3.75;;
2930;SDS011;1475;51.454;7.150;2022-07-22T07:21:04;6.53;;;4.05;;
2930;SDS011;1475;51.454;7.150;2022-07-22T07:23:33;6.55;;;3.72;;
2930;SDS011;1475;51.454;7.150;2022-07-22T07:26:00;5.82;;;4.68;;
2930;SDS011;1475;51.454;7.150;2022-07-22T07:28:27;9.20;;;5.83;;
2930;SDS011;1475;51.454;7.150;2022-07-22T07:30:54;6.70;;;5.10;;
2930;SDS011;1475;51.454;7.150;2022-07-22T07:33:20;6.13;;;4.13;;
2930;SDS011;1475;51.454;7.150;2022-07-22T07:35:47;7.78;;;4.80;;
2930;SDS011;1475;51.454;7.150;2022-07-22T07:38:14;7.28;;;4.32;;
2930;SDS011;1475;51.454;7.150;2022-07-22T07:40:42;5.38;;;3.72;;
2930;SDS011;1475;51.454;7.150;2022-07-22T07:43:09;5.53;;;3.90;;
2930;SDS011;1475;51.454;7.150;2022-07-22T07:45:36;7.40;;;3.50;;
2930;SDS011;1475;51.454;7.150;2022-07-22T07:48:03;7.38;;;3.58;;
2930;SDS011;1475;51.454;7.150;2022-07-22T07:50:30;4.07;;;2.80;;
2930;SDS011;1475;51.454;7.150;2022-07-22T07:52:57;4.90;;;3.25;;
2930;SDS011;1475;51.454;7.150;2022-07-22T07:55:24;4.43;;;2.97;;
2930;SDS011;1475;51.454;7.150;2022-07-22T07:57:53;4.10;;;2.70;;
2930;SDS011;1475;51.454;7.150;2022-07-22T08:00:21;5.05;;;3.28;;
2930;SDS011;1475;51.454;7.150;2022-07-22T08:02:51;4.82;;;3.88;;
2930;SDS011;1475;51.454;7.150;2022-07-22T08:05:18;4.80;;;3.70;;
2930;SDS011;1475;51.454;7.150;2022-07-22T08:07:47;5.85;;;4.05;;
2930;SDS011;1475;51.454;7.150;2022-07-22T08:10:14;4.70;;;3.50;;
2930;SDS011;1475;51.454;7.150;2022-07-22T08:12:40;6.72;;;4.25;;
2930;SDS011;1475;51.454;7.150;2022-07-22T08:15:09;10.05;;;6.10;;
2930;SDS011;1475;51.454;7.150;2022-07-22T08:17:36;6.05;;;5.45;;
2930;SDS011;1475;51.454;7.150;2022-07-22T08:20:03;7.55;;;4.30;;
2930;SDS011;1475;51.454;7.150;2022-07-22T08:22:32;6.70;;;3.95;;
2930;SDS011;1475;51.454;7.150;2022-07-22T08:24:59;5.03;;;3.90;;
2930;SDS011;1475;51.454;7.150;2022-07-22T08:27:26;5.75;;;4.35;;
2930;SDS011;1475;51.454;7.150;2022-07-22T08:29:53;6.10;;;5.10;;
2930;SDS011;1475;51.454;7.150;2022-07-22T08:32:21;7.68;;;6.88;;
2930;SDS011;1475;51.454;7.150;2022-07-22T08:34:48;7.05;;;6.35;;
2930;SDS011;1475;51.454;7.150;2022-07-22T08:37:15;4.78;;;4.30;;
2930;SDS011;1475;51.454;7.150;2022-07-22T08:39:42;6.70;;;4.22;;
2930;SDS011;1475;51.454;7.150;2022-07-22T08:42:08;5.60;;;3.90;;
2930;SDS011;1475;51.454;7.150;2022-07-22T08:44:35;6.57;;;3.90;;
2930;SDS011;1475;51.454;7.150;2022-07-22T08:47:02;4.03;;;3.20;;
2930;SDS011;1475;51.454;7.150;2022-07-22T08:49:30;4.15;;;3.50;;
2930;SDS011;1475;51.454;7.150;2022-07-22T08:51:58;7.53;;;5.53;;
2930;SDS011;1475;51.454;7.150;2022-07-22T08:54:25;5.65;;;4.57;;
2930;SDS011;1475;51.454;7.150;2022-07-22T08:56:51;9.38;;;5.63;;
2930;SDS011;1475;51.454;7.150;2022-07-22T08:59:18;5.10;;;4.60;;
2930;SDS011;1475;51.454;7.150;2022-07-22T09:02:00;4.95;;;3.97;;
2930;SDS011;1475;51.454;7.150;2022-07-22T09:04:30;7.20;;;4.72;;
2930;SDS011;1475;51.454;7.150;2022-07-22T09:06:57;5.07;;;3.20;;
2930;SDS011;1475;51.454;7.150;2022-07-22T09:09:31;5.28;;;3.60;;
2930;SDS011;1475;51.454;7.150;2022-07-22T09:12:05;7.28;;;4.00;;
2930;SDS011;1475;51.454;7.150;2022-07-22T09:14:42;5.28;;;3.60;;
2930;SDS011;1475;51.454;7.150;2022-07-22T09:17:21;6.53;;;4.32;;
2930;SDS011;1475;51.454;7.150;2022-07-22T09:19:53;4.90;;;4.40;;
2930;SDS011;1475;51.454;7.150;2022-07-22T09:22:33;5.60;;;4.70;;
2930;SDS011;1475;51.454;7.150;2022-07-22T09:25:16;6.10;;;4.75;;
2930;SDS011;1475;51.454;7.150;2022-07-22T09:27:48;6.82;;;6.10;;
2930;SDS011;1475;51.454;7.150;2022-07-22T09:30:17;6.20;;;5.60;;
2930;SDS011;1475;51.454;7.150;2022-07-22T09:32:47;6.68;;;5.53;;
2930;SDS011;1475;51.454;7.150;2022-07-22T09:35:15;8.05;;;6.65;;
2930;SDS011;1475;51.454;7.150;2022-07-22T09:37:47;7.78;;;6.47;;
2930;SDS011;1475;51.454;7.150;2022-07-22T09:40:19;8.40;;;6.88;;
2930;SDS011;1475;51.454;7.150;2022-07-22T09:42:49;10.63;;;7.80;;
2930;SDS011;1475;51.454;7.150;2022-07-22T09:45:17;9.00;;;7.67;;
2930;SDS011;1475;51.454;7.150;2022-07-22T09:47:45;10.65;;;7.80;;
2930;SDS011;1475;51.454;7.150;2022-07-22T09:50:18;7.97;;;7.10;;
2930;SDS011;1475;51.454;7.150;2022-07-22T09:52:47;13.20;;;11.85;;
2930;SDS011;1475;51.454;7.150;2022-07-22T09:55:15;12.65;;;11.35;;
2930;SDS011;1475;51.454;7.150;2022-07-22T09:57:44;11.98;;;10.77;;
2930;SDS011;1475;51.454;7.150;2022-07-22T10:00:11;9.95;;;8.95;;
2930;SDS011;1475;51.454;7.150;2022-07-22T10:02:41;11.52;;;9.90;;
2930;SDS011;1475;51.454;7.150;2022-07-22T10:05:13;11.43;;;10.32;;
2930;SDS011;1475;51.454;7.150;2022-07-22T10:07:43;11.20;;;9.90;;
2930;SDS011;1475;51.454;7.150;2022-07-22T10:10:11;13.68;;;11.75;;
2930;SDS011;1475;51.454;7.150;2022-07-22T10:12:39;16.13;;;14.40;;
2930;SDS011;1475;51.454;7.150;2022-07-22T10:15:07;17.40;;;14.10;;
2930;SDS011;1475;51.454;7.150;2022-07-22T10:17:35;14.20;;;12.70;;
2930;SDS011;1475;51.454;7.150;2022-07-22T10:20:05;14.37;;;11.73;;
2930;SDS011;1475;51.454;7.150;2022-07-22T10:22:54;13.30;;;11.40;;
2930;SDS011;1475;51.454;7.150;2022-07-22T10:25:22;14.85;;;12.73;;
2930;SDS011;1475;51.454;7.150;2022-07-22T10:27:51;17.95;;;12.10;;
2930;SDS011;1475;51.454;7.150;2022-07-22T10:30:21;14.40;;;12.40;;
2930;SDS011;1475;51.454;7.150;2022-07-22T10:33:01;15.75;;;13.30;;
2930;SDS011;1475;51.454;7.150;2022-07-22T10:35:30;17.48;;;13.43;;
2930;SDS011;1475;51.454;7.150;2022-07-22T10:38:09;15.05;;;13.02;;
2930;SDS011;1475;51.454;7.150;2022-07-22T10:40:51;21.65;;;17.50;;
2930;SDS011;1475;51.454;7.150;2022-07-22T10:43:19;21.30;;;18.52;;
2930;SDS011;1475;51.454;7.150;2022-07-22T10:45:48;17.13;;;14.68;;
2930;SDS011;1475;51.454;7.150;2022-07-22T10:48:18;14.13;;;11.30;;
2930;SDS011;1475;51.454;7.150;2022-07-22T10:50:50;15.93;;;12.73;;
2930;SDS011;1475;51.454;7.150;2022-07-22T10:53:22;15.75;;;12.55;;
2930;SDS011;1475;51.454;7.150;2022-07-22T10:56:01;14.07;;;12.57;;
2930;SDS011;1475;51.454;7.150;2022-07-22T10:58:39;15.52;;;13.90;;
2930;SDS011;1475;51.454;7.150;2022-07-22T11:01:13;17.00;;;14.00;;
2930;SDS011;1475;51.454;7.150;2022-07-22T11:03:42;16.77;;;13.88;;
2930;SDS011;1475;51.454;7.150;2022-07-22T11:08:58;15.32;;;13.02;;
2930;SDS011;1475;51.454;7.150;2022-07-22T11:11:33;16.25;;;12.55;;
2930;SDS011;1475;51.454;7.150;2022-07-22T11:14:03;15.77;;;13.50;;
2930;SDS011;1475;51.454;7.150;2022-07-22T11:16:36;14.93;;;13.40;;
2930;SDS011;1475;51.454;7.150;2022-07-22T11:19:03;18.35;;;14.65;;
2930;SDS011;1475;51.454;7.150;2022-07-22T11:21:31;17.02;;;14.02;;
2930;SDS011;1475;51.454;7.150;2022-07-22T11:24:01;18.58;;;14.10;;
2930;SDS011;1475;51.454;7.150;2022-07-22T11:26:33;15.93;;;13.50;;
2930;SDS011;1475;51.454;7.150;2022-07-22T11:29:03;14.55;;;13.05;;
2930;SDS011;1475;51.454;7.150;2022-07-22T11:31:30;15.60;;;13.90;;
2930;SDS011;1475;51.454;7.150;2022-07-22T11:34:07;16.98;;;14.77;;
2930;SDS011;1475;51.454;7.150;2022-07-22T11:36:35;16.55;;;14.00;;
2930;SDS011;1475;51.454;7.150;2022-07-22T11:39:05;17.60;;;14.43;;
2930;SDS011;1475;51.454;7.150;2022-07-22T11:41:34;16.40;;;13.80;;
2930;SDS011;1475;51.454;7.150;2022-07-22T11:44:01;21.85;;;14.95;;
2930;SDS011;1475;51.454;7.150;2022-07-22T11:46:34;19.98;;;14.85;;
2930;SDS011;1475;51.454;7.150;2022-07-22T11:49:02;16.20;;;14.50;;
2930;SDS011;1475;51.454;7.150;2022-07-22T11:51:30;15.35;;;13.75;;
2930;SDS011;1475;51.454;7.150;2022-07-22T11:53:58;16.83;;;15.02;;
2930;SDS011;1475;51.454;7.150;2022-07-22T11:56:27;16.67;;;14.68;;
2930;SDS011;1475;51.454;7.150;2022-07-22T11:58:54;17.20;;;15.20;;
2930;SDS011;1475;51.454;7.150;2022-07-22T12:01:23;16.47;;;14.63;;
2930;SDS011;1475;51.454;7.150;2022-07-22T12:03:51;17.15;;;14.32;;
2930;SDS011;1475;51.454;7.150;2022-07-22T12:06:21;17.88;;;14.95;;
2930;SDS011;1475;51.454;7.150;2022-07-22T12:08:51;16.90;;;15.10;;
2930;SDS011;1475;51.454;7.150;2022-07-22T12:11:22;16.73;;;15.02;;
2930;SDS011;1475;51.454;7.150;2022-07-22T12:13:51;19.25;;;16.48;;
2930;SDS011;1475;51.454;7.150;2022-07-22T12:16:19;18.17;;;16.02;;
2930;SDS011;1475;51.454;7.150;2022-07-22T12:18:52;17.30;;;15.50;;
2930;SDS011;1475;51.454;7.150;2022-07-22T12:21:20;17.55;;;15.65;;
2930;SDS011;1475;51.454;7.150;2022-07-22T12:23:49;18.95;;;16.33;;
2930;SDS011;1475;51.454;7.150;2022-07-22T12:29:17;19.92;;;17.08;;
2930;SDS011;1475;51.454;7.150;2022-07-22T12:31:47;17.67;;;15.87;;
2930;SDS011;1475;51.454;7.150;2022-07-22T12:34:15;20.13;;;16.60;;
2930;SDS011;1475;51.454;7.150;2022-07-22T12:36:43;17.80;;;15.80;;
2930;SDS011;1475;51.454;7.150;2022-07-22T12:39:14;17.92;;;16.13;;
2930;SDS011;1475;51.454;7.150;2022-07-22T12:41:47;18.42;;;15.98;;
2930;SDS011;1475;51.454;7.150;2022-07-22T12:44:18;17.98;;;16.17;;
2930;SDS011;1475;51.454;7.150;2022-07-22T12:46:47;17.90;;;16.00;;
2930;SDS011;1475;51.454;7.150;2022-07-22T12:49:16;18.40;;;16.13;;
2930;SDS011;1475;51.454;7.150;2022-07-22T12:54:34;17.67;;;15.88;;
2930;SDS011;1475;51.454;7.150;2022-07-22T12:57:02;19.17;;;17.23;;
2930;SDS011;1475;51.454;7.150;2022-07-22T12:59:31;20.00;;;17.95;;
2930;SDS011;1475;51.454;7.150;2022-07-22T13:01:58;19.05;;;15.75;;
2930;SDS011;1475;51.454;7.150;2022-07-22T13:04:24;19.45;;;15.88;;
2930;SDS011;1475;51.454;7.150;2022-07-22T13:06:51;17.98;;;16.08;;
2930;SDS011;1475;51.454;7.150;2022-07-22T13:09:32;19.58;;;16.65;;
2930;SDS011;1475;51.454;7.150;2022-07-22T13:11:59;16.98;;;15.27;;
2930;SDS011;1475;51.454;7.150;2022-07-22T13:14:26;18.63;;;15.25;;
2930;SDS011;1475;51.454;7.150;2022-07-22T13:16:54;17.87;;;15.07;;
2930;SDS011;1475;51.454;7.150;2022-07-22T13:19:20;16.50;;;14.48;;
2930;SDS011;1475;51.454;7.150;2022-07-22T13:21:48;17.87;;;15.70;;
2930;SDS011;1475;51.454;7.150;2022-07-22T13:24:15;17.15;;;15.35;;
2930;SDS011;1475;51.454;7.150;2022-07-22T13:26:42;17.63;;;15.88;;
2930;SDS011;1475;51.454;7.150;2022-07-22T13:29:09;17.48;;;15.57;;
2930;SDS011;1475;51.454;7.150;2022-07-22T13:31:37;17.00;;;15.30;;
2930;SDS011;1475;51.454;7.150;2022-07-22T13:34:05;17.05;;;15.35;;
2930;SDS011;1475;51.454;7.150;2022-07-22T13:36:32;18.00;;;16.10;;
2930;SDS011;1475;51.454;7.150;2022-07-22T13:39:00;15.70;;;14.10;;
2930;SDS011;1475;51.454;7.150;2022-07-22T13:41:30;16.35;;;14.20;;
2930;SDS011;1475;51.454;7.150;2022-07-22T13:44:06;16.35;;;14.68;;
2930;SDS011;1475;51.454;7.150;2022-07-22T13:46:47;16.15;;;14.27;;
2930;SDS011;1475;51.454;7.150;2022-07-22T13:49:30;16.30;;;14.65;;
2930;SDS011;1475;51.454;7.150;2022-07-22T13:52:10;18.77;;;15.15;;
2930;SDS011;1475;51.454;7.150;2022-07-22T13:54:38;15.40;;;13.80;;
2930;SDS011;1475;51.454;7.150;2022-07-22T13:57:07;15.40;;;13.82;;
2930;SDS011;1475;51.454;7.150;2022-07-22T13:59:35;17.02;;;15.30;;
2930;SDS011;1475;51.454;7.150;2022-07-22T14:02:04;16.10;;;14.25;;
2930;SDS011;1475;51.454;7.150;2022-07-22T14:07:49;15.60;;;14.02;;
2930;SDS011;1475;51.454;7.150;2022-07-22T14:10:16;15.43;;;13.83;;
2930;SDS011;1475;51.454;7.150;2022-07-22T14:12:44;15.52;;;13.93;;
2930;SDS011;1475;51.454;7.150;2022-07-22T14:17:51;14.02;;;12.63;;
2930;SDS011;1475;51.454;7.150;2022-07-22T14:20:25;14.50;;;12.90;;
2930;SDS011;1475;51.454;7.150;2022-07-22T14:23:02;13.85;;;12.55;;
2930;SDS011;1475;51.454;7.150;2022-07-22T14:25:31;15.65;;;13.63;;
2930;SDS011;1475;51.454;7.150;2022-07-22T14:28:02;15.02;;;13.43;;
2930;SDS011;1475;51.454;7.150;2022-07-22T14:30:31;14.30;;;12.80;;
2930;SDS011;1475;51.454;7.150;2022-07-22T14:32:58;14.40;;;12.93;;
2930;SDS011;1475;51.454;7.150;2022-07-22T14:35:26;14.90;;;13.40;;
2930;SDS011;1475;51.454;7.150;2022-07-22T14:37:53;13.10;;;11.80;;
2930;SDS011;1475;51.454;7.150;2022-07-22T14:40:22;14.90;;;13.27;;
2930;SDS011;1475;51.454;7.150;2022-07-22T14:42:49;14.63;;;13.13;;
2930;SDS011;1475;51.454;7.150;2022-07-22T14:45:48;15.35;;;13.07;;
2930;SDS011;1475;51.454;7.150;2022-07-22T14:48:16;13.98;;;12.57;;
2930;SDS011;1475;51.454;7.150;2022-07-22T14:50:51;13.13;;;11.73;;
2930;SDS011;1475;51.454;7.150;2022-07-22T14:53:19;14.10;;;12.70;;
2930;SDS011;1475;51.454;7.150;2022-07-22T14:55:54;15.10;;;13.60;;
2930;SDS011;1475;51.454;7.150;2022-07-22T14:58:23;14.65;;;12.88;;
2930;SDS011;1475;51.454;7.150;2022-07-22T15:00:54;14.10;;;12.65;;
2930;SDS011;1475;51.454;7.150;2022-07-22T15:03:22;14.60;;;13.18;;
2930;SDS011;1475;51.454;7.150;2022-07-22T15:05:49;12.05;;;10.85;;
2930;SDS011;1475;51.454;7.150;2022-07-22T15:08:16;12.70;;;11.40;;
2930;SDS011;1475;51.454;7.150;2022-07-22T15:10:44;13.20;;;11.90;;
2930;SDS011;1475;51.454;7.150;2022-07-22T15:13:11;12.50;;;11.30;;
2930;SDS011;1475;51.454;7.150;2022-07-22T15:15:38;13.40;;;12.20;;
2930;SDS011;1475;51.454;7.150;2022-07-22T15:18:06;11.90;;;10.80;;
2930;SDS011;1475;51.454;7.150;2022-07-22T15:20:33;12.35;;;11.25;;